Time;durP1;ratioP1;P1;durP2;ratioP2;P2;SDS_P1;SDS_P2;PMS_P1;PMS_P2;Temp;Humidity;BMP_temperature;BMP_pressure;BME280_temperature;BME280_humidity;BME280_pressure;Samples;Min_cycle;Max_cycle;Signal;HPM_P1;HPM_P2
2024/04/09 00:00:46;;;;;;;0.10;0.10;;;;;;;;;;5446413;26;20015;-85
2024/04/09 00:03:16;;;;;;;0.00;0.00;;;;;;;;;;5417447;26;20015;-85
2024/04/09 00:05:43;;;;;;;0.10;0.10;;;;;;;;;;5417584;26;20024;-86
2024/04/09 00:08:12;;;;;;;0.10;0.10;;;;;;;;;;5388627;26;20400;-85
2024/04/09 00:10:40;;;;;;;0.10;0.10;;;;;;;;;;5446341;26;20348;-85
2024/04/09 00:13:09;;;;;;;0.10;0.10;;;;;;;;;;5446264;26;20025;-85
2024/04/09 00:15:36;;;;;;;0.10;0.10;;;;;;;;;;5417356;26;20016;-85
2024/04/09 00:18:17;;;;;;;0.10;0.10;;;;;;;;;;5418754;26;19992;-85
2024/04/09 00:20:45;;;;;;;0.20;0.20;;;;;;;;;;5418538;26;19999;-85
2024/04/09 00:23:18;;;;;;;0.10;0.10;;;;;;;;;;5445666;26;20028;-85
2024/04/09 00:25:45;;;;;;;0.15;0.15;;;;;;;;;;5444869;26;20015;-85
2024/04/09 00:28:13;;;;;;;0.20;0.20;;;;;;;;;;5418380;26;20010;-85
2024/04/09 00:30:40;;;;;;;0.30;0.30;;;;;;;;;;5417271;26;20144;-84
2024/04/09 00:33:08;;;;;;;0.10;0.10;;;;;;;;;;5446164;26;20443;-86
2024/04/09 00:35:36;;;;;;;0.10;0.10;;;;;;;;;;5416983;26;20020;-86
2024/04/09 00:38:06;;;;;;;0.10;0.10;;;;;;;;;;5417160;26;19999;-86
2024/04/09 00:40:36;;;;;;;0.28;0.28;;;;;;;;;;5416583;26;20011;-86
2024/04/09 00:43:03;;;;;;;0.10;0.10;;;;;;;;;;5417193;26;19996;-86
2024/04/09 00:45:30;;;;;;;0.10;0.10;;;;;;;;;;5446073;26;20471;-86
2024/04/09 00:47:58;;;;;;;0.10;0.10;;;;;;;;;;5417423;26;20023;-86
2024/04/09 00:50:26;;;;;;;0.20;0.20;;;;;;;;;;5417134;26;20020;-85
2024/04/09 00:52:55;;;;;;;0.10;0.10;;;;;;;;;;5445984;26;20357;-85
2024/04/09 00:55:26;;;;;;;0.20;0.20;;;;;;;;;;5415597;26;20000;-85
2024/04/09 00:57:53;;;;;;;0.10;0.10;;;;;;;;;;5418117;26;20019;-85
2024/04/09 01:00:21;;;;;;;0.10;0.10;;;;;;;;;;5417559;26;20018;-85
2024/04/09 01:02:49;;;;;;;0.10;0.10;;;;;;;;;;5418286;26;20332;-85
2024/04/09 01:05:16;;;;;;;0.10;0.10;;;;;;;;;;5417664;26;20019;-85
2024/04/09 01:07:43;;;;;;;0.10;0.10;;;;;;;;;;5445254;26;20015;-85
2024/04/09 01:10:11;;;;;;;0.10;0.10;;;;;;;;;;5417752;26;20014;-84
2024/04/09 01:12:38;;;;;;;0.10;0.10;;;;;;;;;;5445783;26;20021;-84
2024/04/09 01:15:06;;;;;;;0.20;0.20;;;;;;;;;;5416568;26;20015;-85
2024/04/09 01:17:34;;;;;;;0.10;0.10;;;;;;;;;;5417745;26;20419;-92
2024/04/09 01:20:01;;;;;;;0.10;0.10;;;;;;;;;;5416741;26;20456;-85
2024/04/09 01:22:30;;;;;;;0.10;0.10;;;;;;;;;;5417903;26;19999;-84
2024/04/09 01:24:57;;;;;;;0.17;0.17;;;;;;;;;;5415991;26;20020;-85
2024/04/09 01:27:25;;;;;;;0.10;0.10;;;;;;;;;;5445447;26;20349;-85
2024/04/09 01:29:53;;;;;;;0.10;0.10;;;;;;;;;;5417283;26;19999;-85
2024/04/09 01:32:21;;;;;;;0.20;0.20;;;;;;;;;;5416144;26;20447;-85
2024/04/09 01:34:49;;;;;;;0.10;0.10;;;;;;;;;;5444973;26;20031;-85
2024/04/09 01:37:17;;;;;;;0.15;0.15;;;;;;;;;;5417424;26;20020;-85
2024/04/09 01:39:48;;;;;;;0.10;0.10;;;;;;;;;;5416135;26;20355;-85
2024/04/09 01:42:15;;;;;;;0.10;0.10;;;;;;;;;;5417125;26;20355;-85
2024/04/09 01:44:44;;;;;;;0.10;0.10;;;;;;;;;;5417456;26;19996;-84
2024/04/09 01:47:11;;;;;;;0.10;0.10;;;;;;;;;;5416967;26;20016;-84
2024/04/09 01:49:40;;;;;;;0.10;0.10;;;;;;;;;;5417307;26;20332;-85
2024/04/09 01:52:11;;;;;;;0.10;0.10;;;;;;;;;;5415852;26;20016;-85
2024/04/09 01:54:38;;;;;;;0.10;0.10;;;;;;;;;;5415908;26;20460;-85
2024/04/09 01:57:05;;;;;;;0.10;0.10;;;;;;;;;;5444798;26;20006;-85
2024/04/09 01:59:32;;;;;;;0.10;0.10;;;;;;;;;;5415874;26;20019;-84
2024/04/09 02:02:00;;;;;;;0.10;0.10;;;;;;;;;;5417334;26;20007;-84
2024/04/09 02:04:27;;;;;;;0.10;0.10;;;;;;;;;;5417032;26;19996;-84
2024/04/09 02:06:55;;;;;;;0.10;0.10;;;;;;;;;;5444932;26;20023;-84
2024/04/09 02:09:24;;;;;;;0.10;0.10;;;;;;;;;;5416943;26;19996;-84
2024/04/09 02:11:51;;;;;;;0.10;0.10;;;;;;;;;;5415525;26;20003;-84
2024/04/09 02:14:18;;;;;;;0.10;0.10;;;;;;;;;;5416653;26;19995;-84
2024/04/09 02:16:45;;;;;;;0.10;0.10;;;;;;;;;;5416573;26;20006;-85
2024/04/09 02:19:12;;;;;;;0.20;0.20;;;;;;;;;;5416873;26;19995;-85
2024/04/09 02:21:40;;;;;;;0.10;0.10;;;;;;;;;;5416395;26;20003;-85
2024/04/09 02:24:07;;;;;;;0.10;0.10;;;;;;;;;;5415407;26;20019;-85
2024/04/09 02:26:34;;;;;;;0.10;0.10;;;;;;;;;;5415766;26;20015;-85
2024/04/09 02:29:02;;;;;;;0.20;0.20;;;;;;;;;;5416556;26;19999;-85
2024/04/09 02:31:29;;;;;;;0.10;0.10;;;;;;;;;;5416563;26;20007;-84
2024/04/09 02:33:56;;;;;;;0.10;0.10;;;;;;;;;;5416829;26;19996;-85
2024/04/09 02:36:24;;;;;;;0.10;0.10;;;;;;;;;;5444361;26;20004;-84
2024/04/09 02:38:52;;;;;;;0.10;0.10;;;;;;;;;;5416667;26;20010;-84
2024/04/09 02:41:20;;;;;;;0.10;0.10;;;;;;;;;;5415120;26;20020;-84
2024/04/09 02:43:47;;;;;;;0.10;0.10;;;;;;;;;;5415209;26;20000;-84
2024/04/09 02:46:15;;;;;;;0.10;0.10;;;;;;;;;;5415219;26;20327;-85
2024/04/09 02:48:42;;;;;;;0.10;0.10;;;;;;;;;;5416199;26;19996;-85
2024/04/09 02:51:10;;;;;;;0.10;0.10;;;;;;;;;;5443974;26;20459;-85
2024/04/09 02:53:37;;;;;;;0.10;0.10;;;;;;;;;;5416337;26;20003;-85
2024/04/09 02:56:08;;;;;;;0.10;0.10;;;;;;;;;;5416238;26;20086;-85
2024/04/09 02:58:36;;;;;;;0.10;0.10;;;;;;;;;;5444238;26;20045;-85
2024/04/09 03:01:07;;;;;;;0.10;0.10;;;;;;;;;;5416510;26;20000;-85
2024/04/09 03:03:35;;;;;;;0.10;0.10;;;;;;;;;;5444136;26;20015;-85
2024/04/09 03:06:07;;;;;;;0.10;0.10;;;;;;;;;;5416175;26;20361;-85
2024/04/09 03:08:34;;;;;;;0.10;0.10;;;;;;;;;;5414823;26;20468;-85
2024/04/09 03:11:02;;;;;;;0.10;0.10;;;;;;;;;;5443996;26;20449;-85
2024/04/09 03:13:29;;;;;;;0.10;0.10;;;;;;;;;;5414686;26;20023;-85
2024/04/09 03:15:56;;;;;;;0.10;0.10;;;;;;;;;;5415985;26;19999;-85
2024/04/09 03:18:23;;;;;;;0.17;0.17;;;;;;;;;;5443873;26;20344;-85
2024/04/09 03:20:57;;;;;;;0.10;0.10;;;;;;;;;;5415591;26;20011;-85
2024/04/09 03:23:25;;;;;;;0.10;0.10;;;;;;;;;;5413798;26;20024;-84
2024/04/09 03:25:52;;;;;;;0.10;0.10;;;;;;;;;;5443912;26;20023;-85
2024/04/09 03:28:19;;;;;;;0.20;0.20;;;;;;;;;;5415755;26;20324;-85
2024/04/09 03:30:55;;;;;;;0.10;0.10;;;;;;;;;;5415544;26;19995;-85
2024/04/09 03:33:22;;;;;;;0.10;0.10;;;;;;;;;;5443252;26;20006;-85
2024/04/09 03:35:53;;;;;;;0.10;0.10;;;;;;;;;;5415599;26;20006;-84
2024/04/09 03:38:21;;;;;;;0.10;0.10;;;;;;;;;;5443371;26;20028;-85
2024/04/09 03:40:57;;;;;;;0.10;0.10;;;;;;;;;;5415486;26;20420;-84
2024/04/09 03:43:24;;;;;;;0.10;0.10;;;;;;;;;;5415357;26;20078;-85
2024/04/09 03:46:01;;;;;;;0.10;0.10;;;;;;;;;;5413966;26;20349;-85
2024/04/09 03:48:28;;;;;;;0.10;0.10;;;;;;;;;;5415413;26;20309;-85
2024/04/09 03:50:55;;;;;;;0.10;0.10;;;;;;;;;;5415068;26;20018;-85
2024/04/09 03:53:23;;;;;;;0.10;0.10;;;;;;;;;;5413992;26;20029;-85
2024/04/09 03:55:56;;;;;;;0.10;0.10;;;;;;;;;;5415020;26;19999;-85
2024/04/09 03:58:24;;;;;;;0.10;0.10;;;;;;;;;;5443508;26;20024;-85
2024/04/09 04:00:57;;;;;;;0.10;0.10;;;;;;;;;;5418775;26;20443;-85
2024/04/09 04:03:25;;;;;;;0.10;0.10;;;;;;;;;;5418563;26;20007;-85
2024/04/09 04:05:53;;;;;;;0.10;0.10;;;;;;;;;;5446913;26;20026;-85
2024/04/09 04:08:23;;;;;;;0.10;0.10;;;;;;;;;;5418487;26;20011;-85
2024/04/09 04:10:53;;;;;;;0.10;0.10;;;;;;;;;;5446437;26;20402;-85
2024/04/09 04:13:22;;;;;;;0.10;0.10;;;;;;;;;;5446652;26;20361;-85
2024/04/09 04:16:05;;;;;;;0.10;0.10;;;;;;;;;;5417617;26;20432;-85
2024/04/09 04:18:36;;;;;;;0.10;0.10;;;;;;;;;;5446010;26;20019;-85
2024/04/09 04:21:07;;;;;;;0.20;0.20;;;;;;;;;;5419164;26;19999;-85
2024/04/09 04:23:34;;;;;;;0.10;0.10;;;;;;;;;;5446061;26;20014;-85
2024/04/09 04:26:08;;;;;;;0.10;0.10;;;;;;;;;;5417167;26;20024;-84
2024/04/09 04:28:39;;;;;;;0.10;0.10;;;;;;;;;;5446433;26;19999;-85
2024/04/09 04:31:07;;;;;;;0.10;0.10;;;;;;;;;;5416990;26;20015;-85
2024/04/09 04:33:34;;;;;;;0.10;0.10;;;;;;;;;;5417085;26;20015;-85
2024/04/09 04:36:01;;;;;;;0.10;0.10;;;;;;;;;;5445817;26;20023;-84
2024/04/09 04:38:30;;;;;;;0.10;0.10;;;;;;;;;;5418586;26;19996;-85
2024/04/09 04:40:57;;;;;;;0.10;0.10;;;;;;;;;;5446200;26;20024;-85
2024/04/09 04:43:25;;;;;;;0.10;0.10;;;;;;;;;;5445671;26;20015;-85
2024/04/09 04:45:52;;;;;;;0.10;0.10;;;;;;;;;;5418165;26;19995;-84
2024/04/09 04:48:19;;;;;;;0.20;0.20;;;;;;;;;;5445917;26;20392;-85
2024/04/09 04:50:46;;;;;;;0.10;0.10;;;;;;;;;;5418017;26;19996;-84
2024/04/09 04:53:13;;;;;;;0.10;0.10;;;;;;;;;;5417235;26;20015;-85
2024/04/09 04:55:41;;;;;;;0.10;0.10;;;;;;;;;;5416878;26;20024;-85
2024/04/09 04:58:08;;;;;;;0.10;0.10;;;;;;;;;;5445201;26;20015;-85
2024/04/09 05:00:39;;;;;;;0.10;0.10;;;;;;;;;;5416489;26;20016;-85
2024/04/09 05:03:07;;;;;;;0.10;0.10;;;;;;;;;;5416530;26;20124;-85
2024/04/09 05:05:34;;;;;;;0.10;0.10;;;;;;;;;;5445648;26;20010;-85
2024/04/09 05:08:01;;;;;;;0.10;0.10;;;;;;;;;;5416651;26;20023;-85
2024/04/09 05:10:29;;;;;;;0.30;0.30;;;;;;;;;;5445273;26;20068;-85
2024/04/09 05:12:56;;;;;;;0.10;0.10;;;;;;;;;;5417661;26;20451;-85
2024/04/09 05:15:23;;;;;;;0.43;0.20;;;;;;;;;;5445658;26;19995;-85
2024/04/09 05:17:51;;;;;;;0.10;0.10;;;;;;;;;;5445412;26;20010;-85
2024/04/09 05:20:18;;;;;;;0.10;0.10;;;;;;;;;;5445412;26;20016;-85
2024/04/09 05:22:47;;;;;;;0.20;0.20;;;;;;;;;;5417538;26;20336;-85
2024/04/09 05:25:15;;;;;;;0.10;0.10;;;;;;;;;;5445515;26;20078;-85
2024/04/09 05:27:42;;;;;;;0.10;0.10;;;;;;;;;;5416818;26;20023;-84
2024/04/09 05:30:10;;;;;;;0.10;0.10;;;;;;;;;;5415751;26;20016;-84
2024/04/09 05:32:39;;;;;;;0.10;0.10;;;;;;;;;;5417740;26;19996;-85
2024/04/09 05:35:06;;;;;;;0.10;0.10;;;;;;;;;;5417614;26;19995;-85
2024/04/09 05:37:34;;;;;;;0.10;0.10;;;;;;;;;;5445448;26;20024;-84
2024/04/09 05:40:08;;;;;;;0.20;0.20;;;;;;;;;;5444824;26;20024;-84
2024/04/09 05:42:39;;;;;;;0.20;0.20;;;;;;;;;;5416149;26;19991;-84
2024/04/09 05:45:08;;;;;;;0.10;0.10;;;;;;;;;;5416614;26;20032;-84
2024/04/09 05:47:35;;;;;;;0.10;0.10;;;;;;;;;;5417229;26;20024;-85
2024/04/09 05:50:03;;;;;;;0.10;0.10;;;;;;;;;;5417319;26;20431;-84
2024/04/09 05:52:31;;;;;;;0.10;0.10;;;;;;;;;;5445274;26;20032;-85
2024/04/09 05:54:58;;;;;;;0.10;0.10;;;;;;;;;;5444585;26;20024;-84
2024/04/09 05:57:25;;;;;;;0.10;0.10;;;;;;;;;;5445170;26;20015;-85
2024/04/09 05:59:54;;;;;;;0.10;0.10;;;;;;;;;;5417224;26;20010;-84
2024/04/09 06:02:21;;;;;;;0.20;0.20;;;;;;;;;;5415951;26;20019;-84
2024/04/09 06:04:49;;;;;;;0.15;0.15;;;;;;;;;;5415802;26;20020;-84
2024/04/09 06:07:16;;;;;;;0.10;0.10;;;;;;;;;;5444664;26;20370;-85
2024/04/09 06:09:45;;;;;;;0.20;0.20;;;;;;;;;;5417404;26;19996;-84
2024/04/09 06:12:12;;;;;;;0.10;0.10;;;;;;;;;;5415792;26;20446;-85
2024/04/09 06:14:39;;;;;;;0.10;0.10;;;;;;;;;;5417247;26;20002;-84
2024/04/09 06:17:07;;;;;;;0.10;0.10;;;;;;;;;;5416703;26;20000;-84
2024/04/09 06:19:35;;;;;;;0.10;0.10;;;;;;;;;;5444948;26;20031;-85
2024/04/09 06:22:02;;;;;;;0.10;0.10;;;;;;;;;;5414953;26;19995;-85
2024/04/09 06:24:29;;;;;;;0.10;0.10;;;;;;;;;;5415429;26;20040;-84
2024/04/09 06:26:57;;;;;;;0.10;0.10;;;;;;;;;;5416522;26;20015;-85
2024/04/09 06:29:24;;;;;;;0.10;0.10;;;;;;;;;;5444575;26;20020;-84
2024/04/09 06:31:53;;;;;;;0.10;0.10;;;;;;;;;;5416391;26;20011;-83
2024/04/09 06:34:20;;;;;;;0.13;0.13;;;;;;;;;;5415299;26;20025;-84
2024/04/09 06:36:48;;;;;;;0.10;0.10;;;;;;;;;;5444133;26;20019;-83
2024/04/09 06:39:15;;;;;;;0.10;0.10;;;;;;;;;;5417152;26;20006;-83
2024/04/09 06:41:46;;;;;;;0.10;0.10;;;;;;;;;;5424711;26;20026;-83
2024/04/09 06:44:14;;;;;;;0.10;0.10;;;;;;;;;;5414512;26;20020;-82
2024/04/09 06:46:42;;;;;;;0.30;0.30;;;;;;;;;;5413673;26;20023;-83
2024/04/09 06:49:09;;;;;;;0.10;0.10;;;;;;;;;;5423888;26;20048;-83
2024/04/09 06:51:36;;;;;;;0.08;0.08;;;;;;;;;;5439059;26;20032;-83
2024/04/09 06:54:03;;;;;;;0.10;0.10;;;;;;;;;;5416050;26;20360;-83
2024/04/09 06:56:30;;;;;;;0.10;0.10;;;;;;;;;;5415524;26;20004;-83
2024/04/09 06:58:58;;;;;;;0.10;0.10;;;;;;;;;;5415713;26;20014;-83
2024/04/09 07:01:25;;;;;;;0.10;0.10;;;;;;;;;;5415495;26;20415;-82
2024/04/09 07:03:53;;;;;;;0.10;0.10;;;;;;;;;;5413552;26;20023;-82
2024/04/09 07:06:20;;;;;;;0.10;0.10;;;;;;;;;;5415845;26;20427;-83
2024/04/09 07:08:49;;;;;;;0.10;0.10;;;;;;;;;;5385776;26;20028;-83
2024/04/09 07:11:16;;;;;;;0.10;0.10;;;;;;;;;;5414796;26;20031;-84
2024/04/09 07:13:44;;;;;;;0.20;0.20;;;;;;;;;;5385242;26;20027;-84
2024/04/09 07:16:11;;;;;;;0.10;0.10;;;;;;;;;;5415488;26;19999;-84
2024/04/09 07:18:38;;;;;;;0.10;0.10;;;;;;;;;;5413845;26;20028;-85
2024/04/09 07:21:05;;;;;;;0.10;0.10;;;;;;;;;;5384295;26;20036;-83
2024/04/09 07:23:33;;;;;;;0.10;0.10;;;;;;;;;;5415158;26;20000;-86
2024/04/09 07:26:00;;;;;;;0.10;0.10;;;;;;;;;;5415993;26;20352;-84
2024/04/09 07:28:27;;;;;;;0.10;0.10;;;;;;;;;;5414825;26;20020;-85
2024/04/09 07:30:54;;;;;;;0.10;0.10;;;;;;;;;;5415136;26;20454;-85
2024/04/09 07:33:22;;;;;;;0.10;0.10;;;;;;;;;;5419659;26;20010;-87
2024/04/09 07:35:49;;;;;;;0.10;0.10;;;;;;;;;;5421364;26;20023;-84
2024/04/09 07:38:16;;;;;;;0.10;0.10;;;;;;;;;;5417173;26;20027;-86
2024/04/09 07:40:45;;;;;;;0.10;0.10;;;;;;;;;;5388003;26;20028;-88
2024/04/09 07:43:13;;;;;;;0.10;0.10;;;;;;;;;;5417034;26;20023;-86
2024/04/09 07:45:40;;;;;;;0.10;0.10;;;;;;;;;;5416669;26;20359;-86
2024/04/09 07:48:07;;;;;;;0.10;0.10;;;;;;;;;;5417044;26;20029;-86
2024/04/09 07:50:35;;;;;;;0.10;0.10;;;;;;;;;;5417403;26;20023;-86
2024/04/09 07:53:03;;;;;;;0.10;0.10;;;;;;;;;;5418359;26;19999;-86
2024/04/09 07:55:30;;;;;;;0.10;0.10;;;;;;;;;;5417025;26;20020;-85
2024/04/09 07:57:57;;;;;;;0.10;0.10;;;;;;;;;;5416423;26;20020;-86
2024/04/09 08:00:24;;;;;;;0.10;0.10;;;;;;;;;;5416567;26;20003;-85
2024/04/09 08:02:52;;;;;;;0.10;0.10;;;;;;;;;;5418404;26;20003;-86
2024/04/09 08:05:19;;;;;;;0.10;0.10;;;;;;;;;;5418889;26;20014;-85
2024/04/09 08:07:46;;;;;;;0.13;0.13;;;;;;;;;;5416791;26;20459;-85
2024/04/09 08:10:18;;;;;;;0.10;0.10;;;;;;;;;;5416707;26;20340;-85
2024/04/09 08:12:49;;;;;;;0.10;0.10;;;;;;;;;;5418264;26;20454;-86
2024/04/09 08:15:18;;;;;;;0.10;0.10;;;;;;;;;;5417305;26;20014;-86
2024/04/09 08:17:48;;;;;;;0.10;0.10;;;;;;;;;;5418978;26;20621;-85
2024/04/09 08:20:15;;;;;;;0.10;0.10;;;;;;;;;;5417025;26;20014;-85
2024/04/09 08:22:43;;;;;;;0.10;0.10;;;;;;;;;;5416480;26;20031;-85
2024/04/09 08:25:10;;;;;;;0.10;0.10;;;;;;;;;;5414837;26;20016;-85
2024/04/09 08:27:38;;;;;;;0.10;0.10;;;;;;;;;;5387318;26;20349;-86
2024/04/09 08:30:06;;;;;;;0.10;0.10;;;;;;;;;;5416612;26;20019;-86
2024/04/09 08:32:34;;;;;;;0.10;0.10;;;;;;;;;;5418468;26;19999;-86
2024/04/09 08:35:01;;;;;;;0.10;0.10;;;;;;;;;;5416649;26;20336;-86
2024/04/09 08:37:29;;;;;;;0.10;0.10;;;;;;;;;;5418133;26;19999;-87
2024/04/09 08:39:56;;;;;;;0.10;0.10;;;;;;;;;;5415692;26;20311;-86
2024/04/09 08:42:24;;;;;;;0.10;0.10;;;;;;;;;;5414458;26;20455;-86
2024/04/09 08:44:52;;;;;;;0.10;0.10;;;;;;;;;;5418099;26;20003;-88
2024/04/09 08:47:20;;;;;;;0.10;0.10;;;;;;;;;;5418111;26;20036;-85
2024/04/09 08:49:51;;;;;;;0.10;0.10;;;;;;;;;;5416037;26;20023;-84
2024/04/09 08:52:18;;;;;;;0.10;0.10;;;;;;;;;;5416164;26;20020;-86
2024/04/09 08:54:45;;;;;;;0.10;0.10;;;;;;;;;;5418140;26;20019;-86
2024/04/09 08:57:13;;;;;;;0.10;0.10;;;;;;;;;;5416410;26;20020;-86
2024/04/09 08:59:40;;;;;;;0.10;0.10;;;;;;;;;;5415823;26;20023;-85
2024/04/09 09:02:09;;;;;;;0.10;0.10;;;;;;;;;;5386839;26;20353;-86
2024/04/09 09:04:37;;;;;;;0.10;0.10;;;;;;;;;;5417916;26;20010;-86
2024/04/09 09:07:04;;;;;;;0.17;0.15;;;;;;;;;;5417965;26;20348;-84
2024/04/09 09:09:31;;;;;;;0.10;0.10;;;;;;;;;;5418552;26;20016;-86
2024/04/09 09:12:02;;;;;;;0.10;0.10;;;;;;;;;;5418800;26;20407;-86
2024/04/09 09:14:29;;;;;;;0.10;0.10;;;;;;;;;;5415986;26;20364;-84
2024/04/09 09:17:01;;;;;;;0.10;0.10;;;;;;;;;;5415965;26;20018;-88
2024/04/09 09:19:31;;;;;;;2.03;0.23;;;;;;;;;;5417328;26;20020;-88
2024/04/09 09:22:02;;;;;;;0.10;0.10;;;;;;;;;;5417369;26;20020;-88
2024/04/09 09:24:29;;;;;;;0.10;0.10;;;;;;;;;;5416867;26;20028;-88
2024/04/09 09:27:00;;;;;;;0.10;0.10;;;;;;;;;;5415853;26;20019;-84
2024/04/09 09:29:27;;;;;;;0.10;0.10;;;;;;;;;;5417337;26;20020;-85
2024/04/09 09:31:54;;;;;;;0.10;0.10;;;;;;;;;;5386927;26;20016;-84
2024/04/09 09:34:23;;;;;;;0.10;0.10;;;;;;;;;;5415925;26;20011;-85
2024/04/09 09:36:50;;;;;;;0.10;0.10;;;;;;;;;;5387262;26;20353;-85
2024/04/09 09:39:17;;;;;;;0.20;0.20;;;;;;;;;;5415958;26;20016;-90
2024/04/09 09:41:44;;;;;;;0.10;0.10;;;;;;;;;;5387023;26;20024;-86
2024/04/09 09:44:11;;;;;;;0.10;0.10;;;;;;;;;;5415256;26;20368;-86
2024/04/09 09:46:39;;;;;;;0.10;0.10;;;;;;;;;;5415285;26;20019;-86
2024/04/09 09:49:07;;;;;;;0.10;0.10;;;;;;;;;;5417314;26;20327;-86
2024/04/09 09:51:34;;;;;;;0.10;0.10;;;;;;;;;;5415295;26;20020;-86
2024/04/09 09:54:01;;;;;;;0.10;0.10;;;;;;;;;;5415990;26;20015;-87
2024/04/09 09:56:28;;;;;;;0.10;0.10;;;;;;;;;;5414696;26;20031;-84
2024/04/09 09:58:56;;;;;;;0.20;0.20;;;;;;;;;;5415570;26;20352;-85
2024/04/09 10:01:23;;;;;;;0.10;0.10;;;;;;;;;;5386755;26;20019;-85
2024/04/09 10:03:51;;;;;;;0.10;0.10;;;;;;;;;;5415277;26;20032;-85
2024/04/09 10:06:18;;;;;;;0.10;0.10;;;;;;;;;;5414916;26;20460;-85
2024/04/09 10:08:45;;;;;;;0.10;0.10;;;;;;;;;;5416783;26;19996;-85
2024/04/09 10:11:12;;;;;;;0.10;0.10;;;;;;;;;;5414575;26;20031;-85
2024/04/09 10:13:49;;;;;;;0.10;0.10;;;;;;;;;;5416793;26;20457;-85
2024/04/09 10:16:17;;;;;;;0.20;0.20;;;;;;;;;;5414873;26;20037;-84
2024/04/09 10:18:46;;;;;;;0.10;0.10;;;;;;;;;;5416707;26;20028;-85
2024/04/09 10:21:16;;;;;;;0.10;0.10;;;;;;;;;;5416711;26;20356;-84
2024/04/09 10:23:45;;;;;;;0.10;0.10;;;;;;;;;;5416374;26;20003;-86
2024/04/09 10:26:12;;;;;;;0.10;0.10;;;;;;;;;;5414698;26;20023;-87
2024/04/09 10:28:39;;;;;;;0.10;0.10;;;;;;;;;;5385849;26;20031;-85
2024/04/09 10:31:08;;;;;;;0.10;0.10;;;;;;;;;;5416659;26;20027;-86
2024/04/09 10:33:36;;;;;;;0.10;0.10;;;;;;;;;;5386070;26;19999;-86
2024/04/09 10:36:07;;;;;;;0.10;0.10;;;;;;;;;;5414633;26;20472;-85
2024/04/09 10:38:34;;;;;;;0.20;0.20;;;;;;;;;;5414942;26;20023;-85
2024/04/09 10:41:01;;;;;;;0.20;0.20;;;;;;;;;;5414839;26;20039;-88
2024/04/09 10:43:29;;;;;;;0.20;0.20;;;;;;;;;;5416346;26;20360;-85
2024/04/09 10:45:56;;;;;;;0.43;0.43;;;;;;;;;;5414727;26;20019;-84
2024/04/09 10:48:25;;;;;;;0.15;0.15;;;;;;;;;;5416185;26;20011;-83
2024/04/09 10:50:52;;;;;;;0.10;0.10;;;;;;;;;;5414935;26;20023;-82
2024/04/09 10:53:19;;;;;;;0.10;0.10;;;;;;;;;;5413499;26;20028;-82
2024/04/09 10:55:47;;;;;;;0.10;0.10;;;;;;;;;;5413806;26;20031;-82
2024/04/09 10:58:15;;;;;;;0.10;0.10;;;;;;;;;;5424180;26;20023;-81
2024/04/09 11:00:43;;;;;;;0.10;0.10;;;;;;;;;;5414087;26;20476;-81
2024/04/09 11:03:10;;;;;;;0.10;0.10;;;;;;;;;;5417231;26;20022;-82
2024/04/09 11:05:39;;;;;;;0.20;0.20;;;;;;;;;;5416784;26;20019;-85
2024/04/09 11:08:06;;;;;;;0.10;0.10;;;;;;;;;;5413143;26;20024;-85
2024/04/09 11:10:33;;;;;;;0.10;0.10;;;;;;;;;;5384681;26;20039;-83
2024/04/09 11:13:01;;;;;;;0.10;0.10;;;;;;;;;;5414986;26;20358;-84
2024/04/09 11:15:28;;;;;;;0.20;0.20;;;;;;;;;;5413392;26;20033;-84
2024/04/09 11:17:55;;;;;;;0.10;0.10;;;;;;;;;;5415676;26;20004;-83
2024/04/09 11:20:22;;;;;;;0.10;0.10;;;;;;;;;;5413424;26;20036;-83
2024/04/09 11:22:51;;;;;;;0.10;0.10;;;;;;;;;;5444469;26;20456;-83
2024/04/09 11:25:22;;;;;;;0.10;0.10;;;;;;;;;;5416483;26;20003;-83
2024/04/09 11:27:50;;;;;;;0.10;0.10;;;;;;;;;;5444359;26;20028;-83
2024/04/09 11:30:27;;;;;;;0.10;0.10;;;;;;;;;;5415423;26;20348;-84
2024/04/09 11:32:55;;;;;;;0.20;0.20;;;;;;;;;;5414457;26;20071;-84
2024/04/09 11:35:23;;;;;;;0.20;0.20;;;;;;;;;;5414026;26;20020;-84
2024/04/09 11:37:51;;;;;;;0.10;0.10;;;;;;;;;;5413946;26;20019;-84
2024/04/09 11:40:25;;;;;;;0.10;0.10;;;;;;;;;;5414006;26;20351;-85
2024/04/09 11:42:52;;;;;;;0.10;0.10;;;;;;;;;;5413946;26;20460;-89
2024/04/09 11:45:28;;;;;;;0.10;0.10;;;;;;;;;;5416373;26;20155;-90
2024/04/09 11:47:56;;;;;;;0.10;0.10;;;;;;;;;;5415174;26;20019;-89
2024/04/09 11:50:24;;;;;;;0.10;0.10;;;;;;;;;;5413305;26;20031;-87
2024/04/09 11:52:52;;;;;;;0.10;0.10;;;;;;;;;;5414338;26;20423;-86
2024/04/09 11:55:19;;;;;;;0.10;0.10;;;;;;;;;;5413494;26;20700;-90
2024/04/09 11:57:46;;;;;;;0.10;0.10;;;;;;;;;;5414527;26;20011;-94
2024/04/09 12:00:14;;;;;;;0.10;0.10;;;;;;;;;;5415375;26;20024;-92
2024/04/09 12:02:41;;;;;;;0.10;0.10;;;;;;;;;;5414320;26;20012;-92
2024/04/09 12:05:09;;;;;;;0.10;0.10;;;;;;;;;;5416165;26;20010;-92
2024/04/09 12:07:36;;;;;;;0.10;0.10;;;;;;;;;;5414397;26;20019;-92
2024/04/09 12:10:03;;;;;;;0.10;0.10;;;;;;;;;;5415343;26;19996;-92
2024/04/09 12:12:30;;;;;;;0.10;0.10;;;;;;;;;;5414588;26;20024;-95
2024/04/09 12:14:58;;;;;;;0.10;0.10;;;;;;;;;;5414091;26;19999;-91
2024/04/09 12:17:25;;;;;;;0.10;0.10;;;;;;;;;;5414554;26;20019;-91
2024/04/09 12:19:53;;;;;;;0.10;0.10;;;;;;;;;;5416904;26;19995;-93
2024/04/09 12:22:20;;;;;;;0.10;0.10;;;;;;;;;;5418605;26;20028;-90
2024/04/09 12:24:47;;;;;;;0.10;0.10;;;;;;;;;;5418383;26;20423;-90
2024/04/09 12:27:14;;;;;;;0.10;0.10;;;;;;;;;;5387951;26;20348;-85
2024/04/09 12:29:43;;;;;;;0.10;0.10;;;;;;;;;;5416361;26;20020;-85
2024/04/09 12:32:10;;;;;;;0.10;0.10;;;;;;;;;;5447219;26;20336;-85
2024/04/09 12:34:37;;;;;;;0.10;0.10;;;;;;;;;;5418608;26;19996;-86
2024/04/09 12:37:05;;;;;;;0.10;0.10;;;;;;;;;;5418301;26;20349;-87
2024/04/09 12:39:34;;;;;;;0.10;0.10;;;;;;;;;;5416426;26;20027;-87
2024/04/09 12:42:01;;;;;;;0.10;0.10;;;;;;;;;;5417331;26;20354;-86
2024/04/09 12:44:29;;;;;;;0.10;0.10;;;;;;;;;;5418653;26;20010;-87
2024/04/09 12:46:56;;;;;;;0.10;0.10;;;;;;;;;;5416360;26;20023;-87
2024/04/09 12:49:25;;;;;;;0.10;0.10;;;;;;;;;;5416299;26;20019;-87
2024/04/09 12:51:53;;;;;;;0.10;0.10;;;;;;;;;;5418048;26;20459;-88
2024/04/09 12:54:21;;;;;;;0.10;0.10;;;;;;;;;;5416675;26;20433;-86
2024/04/09 12:56:48;;;;;;;0.10;0.10;;;;;;;;;;5416486;26;20000;-87
2024/04/09 12:59:18;;;;;;;0.10;0.10;;;;;;;;;;5446714;26;20019;-87
2024/04/09 13:01:49;;;;;;;0.20;0.20;;;;;;;;;;5417959;26;20007;-88
2024/04/09 13:04:16;;;;;;;0.10;0.10;;;;;;;;;;5418140;26;20002;-88
2024/04/09 13:06:43;;;;;;;0.10;0.10;;;;;;;;;;5418321;26;19999;-90
2024/04/09 13:09:10;;;;;;;0.10;0.10;;;;;;;;;;5418182;26;20439;-89
2024/04/09 13:11:38;;;;;;;0.22;0.20;;;;;;;;;;5417769;26;20024;-91
2024/04/09 13:14:05;;;;;;;0.10;0.10;;;;;;;;;;5418763;26;20424;-89
2024/04/09 13:16:38;;;;;;;0.10;0.10;;;;;;;;;;5416869;26;20016;-89
2024/04/09 13:19:06;;;;;;;0.10;0.10;;;;;;;;;;5446930;26;20351;-91
2024/04/09 13:21:34;;;;;;;0.10;0.10;;;;;;;;;;5416876;26;20363;-91
2024/04/09 13:24:01;;;;;;;0.10;0.10;;;;;;;;;;5416417;26;20015;-90
2024/04/09 13:26:28;;;;;;;0.10;0.10;;;;;;;;;;5419959;26;19999;-92
2024/04/09 13:28:56;;;;;;;0.10;0.10;;;;;;;;;;5446857;26;20439;-90
2024/04/09 13:31:23;;;;;;;0.20;0.20;;;;;;;;;;5416391;26;20016;-89
2024/04/09 13:33:51;;;;;;;0.15;0.15;;;;;;;;;;5416576;26;20029;-90
2024/04/09 13:36:18;;;;;;;0.10;0.10;;;;;;;;;;5418344;26;19996;-90
2024/04/09 13:38:48;;;;;;;0.13;0.13;;;;;;;;;;5416219;26;19995;-91
2024/04/09 13:41:15;;;;;;;0.10;0.10;;;;;;;;;;5417223;26;20019;-91
2024/04/09 13:43:43;;;;;;;0.10;0.10;;;;;;;;;;5417890;26;20015;-89
2024/04/09 13:46:11;;;;;;;0.10;0.10;;;;;;;;;;5415384;26;20102;-88
2024/04/09 13:48:39;;;;;;;0.10;0.10;;;;;;;;;;5446403;26;19996;-89
2024/04/09 13:51:07;;;;;;;0.10;0.10;;;;;;;;;;5415670;26;20016;-91
2024/04/09 13:53:35;;;;;;;0.10;0.10;;;;;;;;;;5416066;26;20015;-89
2024/04/09 13:56:02;;;;;;;0.10;0.10;;;;;;;;;;5414970;26;20028;-85
2024/04/09 13:58:30;;;;;;;0.10;0.10;;;;;;;;;;5415210;26;20024;-87
2024/04/09 14:00:57;;;;;;;0.10;0.10;;;;;;;;;;5417150;26;20365;-90
2024/04/09 14:03:24;;;;;;;0.10;0.10;;;;;;;;;;5416438;26;20006;-93
2024/04/09 14:05:51;;;;;;;0.10;0.10;;;;;;;;;;5448058;26;20324;-91
2024/04/09 14:08:18;;;;;;;0.10;0.10;;;;;;;;;;5418497;26;20003;-91
2024/04/09 14:10:46;;;;;;;0.10;0.10;;;;;;;;;;5446697;26;20011;-92
2024/04/09 14:13:13;;;;;;;0.10;0.10;;;;;;;;;;5418099;26;20000;-92
2024/04/09 14:15:40;;;;;;;0.10;0.10;;;;;;;;;;5446434;26;20024;-89
2024/04/09 14:18:11;;;;;;;0.17;0.17;;;;;;;;;;5418019;26;19999;-90
2024/04/09 14:20:38;;;;;;;0.10;0.10;;;;;;;;;;5416268;26;20006;-92
2024/04/09 14:23:05;;;;;;;0.10;0.10;;;;;;;;;;5446617;26;20031;-88
2024/04/09 14:25:33;;;;;;;0.10;0.10;;;;;;;;;;5417220;26;20000;-89
2024/04/09 14:28:00;;;;;;;0.20;0.20;;;;;;;;;;5415889;26;20344;-87
2024/04/09 14:30:27;;;;;;;0.10;0.10;;;;;;;;;;5417344;26;19996;-87
2024/04/09 14:32:54;;;;;;;0.10;0.10;;;;;;;;;;5416856;26;20020;-87
2024/04/09 14:35:21;;;;;;;0.10;0.10;;;;;;;;;;5417012;26;19999;-88
2024/04/09 14:37:51;;;;;;;0.10;0.10;;;;;;;;;;5416639;26;19999;-88
2024/04/09 14:40:18;;;;;;;0.20;0.20;;;;;;;;;;5445213;26;20010;-88
2024/04/09 14:42:45;;;;;;;0.10;0.10;;;;;;;;;;5413439;26;20016;-86
2024/04/09 14:45:12;;;;;;;0.10;0.10;;;;;;;;;;5414461;26;20020;-85
2024/04/09 14:47:40;;;;;;;0.13;0.13;;;;;;;;;;5414862;26;20024;-89